createdAt,value
2018-11-06T00:04:02.537Z,16.40
2018-11-06T00:09:01.019Z,14.80
2018-11-06T00:13:59.330Z,14.20
2018-11-06T00:18:57.681Z,15.67
2018-11-06T00:23:56.109Z,14.87
2018-11-06T00:28:54.517Z,17.40
2018-11-06T00:33:53.085Z,14.87
2018-11-06T00:38:51.489Z,15.93
2018-11-06T00:43:49.892Z,15.40
2018-11-06T00:48:48.296Z,15.23
2018-11-06T00:53:46.693Z,15.30
2018-11-06T00:58:45.077Z,15.83
2018-11-06T01:03:53.895Z,14.80
2018-11-06T01:08:52.294Z,17.10
2018-11-06T01:13:50.697Z,15.10
2018-11-06T01:18:49.070Z,14.07
2018-11-06T01:23:47.512Z,13.63
2018-11-06T01:28:45.865Z,14.60
2018-11-06T01:33:44.302Z,12.80
2018-11-06T01:38:42.674Z,15.90
2018-11-06T01:43:41.132Z,14.80
2018-11-06T01:48:39.503Z,13.00
2018-11-06T01:53:37.889Z,14.03
2018-11-06T01:58:36.487Z,13.40
2018-11-06T02:03:35.033Z,13.73
2018-11-06T02:08:33.412Z,16.60
2018-11-06T02:13:31.885Z,14.10
2018-11-06T02:18:30.323Z,14.17
2018-11-06T02:23:28.773Z,13.03
2018-11-06T02:28:27.217Z,14.23
2018-11-06T02:33:25.817Z,12.77
2018-11-06T02:38:24.269Z,14.77
2018-11-06T02:43:22.680Z,13.53
2018-11-06T02:48:21.075Z,12.63
2018-11-06T02:53:19.465Z,12.77
2018-11-06T02:58:17.839Z,13.27
2018-11-06T03:03:16.341Z,14.00
2018-11-06T03:08:14.789Z,14.07
2018-11-06T03:13:13.245Z,12.50
2018-11-06T03:18:11.642Z,12.30
2018-11-06T03:23:10.118Z,14.17
2018-11-06T03:28:08.564Z,12.78
2018-11-06T03:33:07.085Z,12.17
2018-11-06T03:38:05.431Z,13.70
2018-11-06T03:43:03.867Z,12.17
2018-11-06T03:48:02.248Z,11.90
2018-11-06T03:53:00.654Z,12.83
2018-11-06T03:57:59.002Z,12.20
2018-11-06T04:02:57.568Z,12.40
2018-11-06T04:07:55.945Z,13.10
2018-11-06T04:12:54.435Z,10.90
2018-11-06T04:17:52.878Z,12.80
2018-11-06T04:22:51.316Z,14.10
2018-11-06T04:27:49.696Z,13.33
2018-11-06T04:32:48.130Z,11.13
2018-11-06T04:37:46.540Z,10.20
2018-11-06T04:42:45.046Z,11.73
2018-11-06T04:47:43.493Z,12.77
2018-11-06T04:52:42.132Z,12.70
2018-11-06T04:57:40.530Z,12.43
2018-11-06T05:02:39.082Z,11.63
2018-11-06T05:07:38.049Z,12.97
2018-11-06T05:12:36.545Z,11.73
2018-11-06T05:17:34.925Z,11.17
2018-11-06T05:22:33.329Z,12.03
2018-11-06T05:27:31.879Z,11.90
2018-11-06T05:32:30.232Z,11.03
2018-11-06T05:37:28.576Z,12.00
2018-11-06T05:42:27.029Z,11.13
2018-11-06T05:47:25.421Z,10.83
2018-11-06T05:52:23.905Z,10.93
2018-11-06T05:57:22.283Z,10.80
2018-11-06T06:02:20.865Z,12.17
2018-11-06T06:07:19.228Z,12.57
2018-11-06T06:12:17.734Z,9.63
2018-11-06T06:17:16.161Z,10.47
2018-11-06T06:22:14.492Z,12.13
2018-11-06T06:27:12.868Z,10.17
2018-11-06T06:32:11.297Z,11.30
2018-11-06T06:37:09.802Z,9.63
2018-11-06T06:42:08.288Z,10.00
2018-11-06T06:47:06.629Z,9.90
2018-11-06T06:52:05.521Z,10.03
2018-11-06T06:57:03.876Z,9.47
2018-11-06T07:02:02.278Z,10.20
2018-11-06T07:07:00.718Z,9.83
2018-11-06T07:11:59.168Z,10.77
2018-11-06T07:16:57.612Z,9.30
2018-11-06T07:21:56.069Z,9.77
2018-11-06T07:26:54.573Z,10.28
2018-11-06T07:31:53.066Z,9.17
2018-11-06T07:36:51.430Z,10.77
2018-11-06T07:41:49.860Z,8.63
2018-11-06T07:46:48.242Z,10.07
2018-11-06T07:51:46.641Z,9.20
2018-11-06T07:56:46.159Z,7.40
2018-11-06T08:01:45.809Z,8.63
2018-11-06T08:06:44.201Z,7.90
2018-11-06T08:11:42.617Z,8.20
2018-11-06T08:16:41.012Z,9.87
2018-11-06T08:21:39.387Z,8.40
2018-11-06T08:26:37.765Z,8.10
2018-11-06T08:31:36.452Z,7.17
2018-11-06T08:36:34.667Z,8.47
2018-11-06T08:41:33.092Z,7.33
2018-11-06T08:46:31.516Z,8.73
2018-11-06T08:51:29.973Z,8.93
2018-11-06T08:56:28.472Z,8.97
2018-11-06T09:01:26.870Z,8.27
2018-11-06T09:06:25.238Z,8.40
2018-11-06T09:11:23.640Z,7.20
2018-11-06T09:16:22.048Z,7.07
2018-11-06T09:21:20.463Z,7.67
2018-11-06T09:26:18.853Z,8.73
2018-11-06T09:31:17.241Z,8.47
2018-11-06T09:36:15.640Z,11.20
2018-11-06T09:41:14.094Z,8.43
2018-11-06T09:46:12.423Z,8.93
2018-11-06T09:51:10.855Z,9.67
2018-11-06T09:56:09.442Z,7.33
2018-11-06T10:01:07.844Z,7.30
2018-11-06T10:06:06.318Z,7.53
2018-11-06T10:11:04.812Z,6.97
2018-11-06T10:16:03.875Z,8.13
2018-11-06T10:21:02.401Z,7.20
2018-11-06T10:26:00.778Z,8.13
2018-11-06T10:30:59.246Z,7.83
2018-11-06T10:35:57.649Z,8.50
2018-11-06T10:40:56.049Z,7.53
2018-11-06T10:45:54.575Z,7.83
2018-11-06T10:50:53.039Z,7.23
2018-11-06T10:55:51.438Z,8.07
2018-11-06T11:00:55.335Z,8.23
2018-11-06T11:05:53.781Z,7.07
2018-11-06T11:10:53.069Z,6.67
2018-11-06T11:15:51.466Z,6.20
2018-11-06T11:20:49.873Z,9.07
2018-11-06T11:25:48.430Z,7.17
2018-11-06T11:30:46.657Z,7.80
2018-11-06T11:35:45.037Z,7.63
2018-11-06T11:40:43.454Z,7.90
2018-11-06T11:45:41.887Z,6.90
2018-11-06T11:50:40.241Z,6.33
2018-11-06T11:55:38.659Z,7.67
2018-11-06T12:00:38.393Z,6.17
2018-11-06T12:05:36.877Z,5.50
2018-11-06T12:10:35.260Z,6.40
2018-11-06T12:15:33.692Z,6.93
2018-11-06T12:20:32.196Z,6.40
2018-11-06T12:25:30.895Z,6.50
2018-11-06T12:30:29.221Z,7.23
2018-11-06T12:35:27.645Z,8.53
2018-11-06T12:40:26.045Z,4.63
2018-11-06T12:45:24.431Z,6.30
2018-11-06T12:50:22.905Z,6.63
2018-11-06T12:55:21.217Z,5.33
2018-11-06T13:00:20.597Z,5.57
2018-11-06T13:05:19.064Z,6.77
2018-11-06T13:10:17.513Z,6.03
2018-11-06T13:15:17.487Z,6.00
2018-11-06T13:20:15.542Z,7.33
2018-11-06T13:25:13.909Z,6.30
2018-11-06T13:30:15.702Z,7.03
2018-11-06T13:35:14.268Z,5.67
2018-11-06T13:40:13.910Z,5.47
2018-11-06T13:45:15.197Z,5.33
2018-11-06T13:50:13.443Z,5.73
2018-11-06T13:55:13.323Z,5.37
2018-11-06T14:00:13.682Z,4.87
2018-11-06T14:05:12.462Z,5.93
2018-11-06T14:10:10.956Z,5.17
2018-11-06T14:15:09.447Z,6.07
2018-11-06T14:20:08.962Z,5.30
2018-11-06T14:25:07.397Z,7.20
2018-11-06T14:30:08.135Z,5.17
2018-11-06T14:35:06.966Z,5.40
2018-11-06T14:40:05.947Z,5.47
2018-11-06T14:45:04.638Z,5.47
2018-11-06T14:50:03.933Z,6.07
2018-11-06T14:55:02.405Z,5.83
2018-11-06T15:00:00.838Z,5.80
2018-11-06T15:04:59.333Z,5.27
2018-11-06T15:09:57.730Z,5.10
2018-11-06T15:14:56.317Z,4.17
2018-11-06T15:19:54.805Z,6.43
2018-11-06T15:24:53.217Z,6.37
2018-11-06T15:29:51.619Z,4.77
2018-11-06T15:34:50.030Z,5.90
2018-11-06T15:39:48.444Z,4.53
2018-11-06T15:44:46.914Z,6.07
2018-11-06T15:49:45.414Z,5.70
2018-11-06T15:54:43.849Z,5.10
2018-11-06T15:59:42.207Z,4.20
2018-11-06T16:04:40.743Z,5.00
2018-11-06T16:09:39.221Z,4.80
2018-11-06T16:14:37.576Z,3.57
2018-11-06T16:19:35.992Z,4.67
2018-11-06T16:24:34.397Z,3.70
2018-11-06T16:29:32.787Z,4.37
2018-11-06T16:34:31.209Z,5.07
2018-11-06T16:39:29.614Z,4.67
2018-11-06T16:44:28.008Z,5.47
2018-11-06T16:49:26.505Z,5.78
2018-11-06T16:54:24.994Z,4.43
2018-11-06T16:59:23.512Z,5.57
2018-11-06T17:04:21.893Z,6.50
2018-11-06T17:09:20.960Z,6.47
2018-11-06T17:14:19.320Z,4.70
2018-11-06T17:19:17.826Z,4.27
2018-11-06T17:24:16.280Z,6.70
2018-11-06T17:29:14.714Z,6.70
2018-11-06T17:34:13.209Z,5.03
2018-11-06T17:39:13.039Z,5.37
2018-11-06T17:44:11.566Z,4.43
2018-11-06T17:49:09.922Z,5.87
2018-11-06T17:54:08.398Z,4.40
2018-11-06T17:59:06.779Z,4.33
2018-11-06T18:04:05.299Z,5.33
2018-11-06T18:09:04.646Z,7.47
2018-11-06T18:14:03.504Z,5.50
2018-11-06T18:19:01.861Z,5.43
2018-11-06T18:24:00.431Z,7.37
2018-11-06T18:28:58.746Z,5.67
2018-11-06T18:33:57.222Z,4.73
2018-11-06T18:38:55.612Z,4.77
2018-11-06T18:43:53.998Z,6.40
2018-11-06T18:48:52.421Z,4.40
2018-11-06T18:53:50.901Z,5.17
2018-11-06T18:58:49.315Z,4.73
2018-11-06T19:03:47.793Z,5.70
2018-11-06T19:08:46.197Z,5.73
2018-11-06T19:13:44.570Z,4.63
2018-11-06T19:18:43.009Z,4.53
2018-11-06T19:23:41.563Z,5.63
2018-11-06T19:28:39.937Z,4.37
2018-11-06T19:33:38.378Z,6.37
2018-11-06T19:38:36.798Z,5.43
2018-11-06T19:43:35.326Z,4.83
2018-11-06T19:48:33.918Z,5.40
2018-11-06T19:53:32.415Z,5.67
2018-11-06T19:58:30.913Z,6.80
2018-11-06T20:03:29.485Z,5.07
2018-11-06T20:08:27.818Z,5.93
2018-11-06T20:13:26.269Z,5.30
2018-11-06T20:18:24.642Z,5.57
2018-11-06T20:23:23.051Z,7.00
2018-11-06T20:28:21.466Z,5.73
2018-11-06T20:33:19.955Z,4.67
2018-11-06T20:38:18.189Z,5.33
2018-11-06T20:43:16.677Z,5.77
2018-11-06T20:48:15.050Z,5.47
2018-11-06T20:53:13.470Z,4.57
2018-11-06T20:58:11.823Z,5.27
2018-11-06T21:03:10.363Z,4.97
2018-11-06T21:08:08.840Z,7.37
2018-11-06T21:13:07.224Z,5.50
2018-11-06T21:18:05.755Z,6.90
2018-11-06T21:23:03.946Z,5.97
2018-11-06T21:28:02.309Z,5.17
2018-11-06T21:33:00.731Z,6.30
2018-11-06T21:37:59.091Z,6.77
2018-11-06T21:42:57.524Z,8.20
2018-11-06T21:47:55.922Z,4.93
2018-11-06T21:52:54.470Z,7.20
2018-11-06T21:57:52.917Z,5.33
2018-11-06T22:02:51.418Z,5.40
2018-11-06T22:07:49.971Z,5.10
2018-11-06T22:12:48.435Z,6.57
2018-11-06T22:17:46.789Z,7.17
2018-11-06T22:22:45.759Z,6.43
2018-11-06T22:27:44.183Z,10.07
2018-11-06T22:32:43.351Z,7.50
2018-11-06T22:47:51.691Z,7.33
2018-11-06T22:52:50.123Z,5.93
2018-11-06T22:57:48.497Z,6.00
2018-11-06T23:02:47.017Z,7.97
2018-11-06T23:07:51.089Z,6.27
2018-11-06T23:12:49.572Z,5.90
2018-11-06T23:17:48.081Z,4.50
2018-11-06T23:22:47.804Z,7.60
2018-11-06T23:27:46.310Z,8.10
2018-11-06T23:32:44.776Z,5.10
2018-11-06T23:37:43.146Z,5.53
2018-11-06T23:42:41.918Z,5.20
2018-11-06T23:47:40.403Z,6.77
2018-11-06T23:52:38.977Z,5.77
2018-11-06T23:57:37.317Z,6.47
